createdAt,value
2022-12-18T00:01:30.205Z,100.00
2022-12-18T00:03:58.365Z,100.00
2022-12-18T00:06:28.676Z,100.00
2022-12-18T00:08:58.622Z,100.00
2022-12-18T00:11:30.213Z,100.00
2022-12-18T00:13:59.174Z,100.00
2022-12-18T00:16:29.289Z,100.00
2022-12-18T00:18:58.987Z,100.00
2022-12-18T00:21:28.539Z,100.00
2022-12-18T00:23:56.306Z,100.00
2022-12-18T00:26:29.136Z,100.00
2022-12-18T00:29:14.755Z,100.00
2022-12-18T00:31:44.693Z,100.00
2022-12-18T00:34:14.660Z,100.00
2022-12-18T00:36:42.582Z,100.00
2022-12-18T00:39:13.218Z,100.00
2022-12-18T00:41:59.191Z,100.00
2022-12-18T00:44:26.670Z,100.00
2022-12-18T00:46:54.124Z,100.00
2022-12-18T00:49:22.092Z,100.00
2022-12-18T00:51:50.332Z,100.00
2022-12-18T00:54:18.823Z,100.00
2022-12-18T00:56:49.228Z,100.00
2022-12-18T00:59:18.995Z,100.00
2022-12-18T01:01:47.936Z,100.00
2022-12-18T01:04:16.039Z,100.00
2022-12-18T01:06:46.442Z,100.00
2022-12-18T01:09:14.503Z,100.00
2022-12-18T01:11:41.954Z,100.00
2022-12-18T01:14:09.576Z,100.00
2022-12-18T01:16:38.717Z,99.80
2022-12-18T01:19:06.267Z,100.00
2022-12-18T01:21:34.454Z,100.00
2022-12-18T01:24:05.957Z,100.00
2022-12-18T01:26:33.716Z,100.00
2022-12-18T01:29:01.213Z,100.00
2022-12-18T01:31:34.050Z,100.00
2022-12-18T01:34:08.125Z,100.00
2022-12-18T01:36:41.230Z,100.00
2022-12-18T01:39:14.582Z,100.00
2022-12-18T01:42:01.936Z,100.00
2022-12-18T01:45:03.132Z,100.00
2022-12-18T01:47:47.565Z,100.00
2022-12-18T01:50:20.846Z,100.00
2022-12-18T01:52:54.487Z,100.00
2022-12-18T01:55:29.016Z,100.00
2022-12-18T01:58:00.363Z,100.00
2022-12-18T02:00:29.116Z,100.00
2022-12-18T02:02:57.533Z,100.00
2022-12-18T02:06:06.729Z,100.00
2022-12-18T02:09:12.037Z,99.96
2022-12-18T02:11:48.415Z,100.00
2022-12-18T02:14:45.477Z,100.00
2022-12-18T02:17:43.897Z,100.00
2022-12-18T02:20:28.916Z,99.81
2022-12-18T02:23:34.110Z,99.68
2022-12-18T02:26:31.927Z,99.71
2022-12-18T02:29:28.934Z,99.84
2022-12-18T02:32:05.524Z,99.31
2022-12-18T02:34:39.299Z,99.76
2022-12-18T02:37:17.137Z,99.56
2022-12-18T02:39:49.470Z,99.67
2022-12-18T02:42:19.610Z,100.00
2022-12-18T02:44:51.916Z,99.99
2022-12-18T02:47:37.020Z,99.86
2022-12-18T02:50:35.594Z,100.00
2022-12-18T02:53:21.954Z,99.91
2022-12-18T02:56:10.840Z,99.85
2022-12-18T02:59:00.112Z,99.81
2022-12-18T03:02:01.117Z,99.57
2022-12-18T03:04:41.117Z,99.46
2022-12-18T03:07:18.520Z,99.40
2022-12-18T03:09:52.813Z,99.24
2022-12-18T03:12:37.608Z,99.70
2022-12-18T03:15:18.143Z,99.20
2022-12-18T03:18:07.595Z,99.28
2022-12-18T03:20:40.911Z,98.97
2022-12-18T03:23:16.184Z,99.38
2022-12-18T03:25:52.187Z,99.69
2022-12-18T03:28:23.545Z,99.33
2022-12-18T03:31:02.062Z,99.08
2022-12-18T03:33:48.190Z,99.05
2022-12-18T03:36:16.500Z,99.57
2022-12-18T03:38:44.144Z,99.76
2022-12-18T03:41:34.654Z,99.19
2022-12-18T03:45:08.973Z,99.10
2022-12-18T03:48:00.454Z,99.51
2022-12-18T03:50:49.800Z,98.76
2022-12-18T03:53:36.504Z,98.79
2022-12-18T03:56:06.375Z,99.34
2022-12-18T03:58:41.583Z,99.05
2022-12-18T04:01:23.481Z,99.39
2022-12-18T04:03:53.859Z,98.94
2022-12-18T04:06:22.617Z,99.02
2022-12-18T04:08:50.422Z,99.05
2022-12-18T04:11:22.305Z,99.38
2022-12-18T04:13:49.837Z,99.62
2022-12-18T04:16:23.537Z,99.23
2022-12-18T04:18:55.156Z,99.05
2022-12-18T04:21:25.262Z,99.76
2022-12-18T04:23:53.714Z,99.70
2022-12-18T04:26:23.735Z,99.76
2022-12-18T04:29:17.352Z,99.81
2022-12-18T04:31:44.797Z,99.01
2022-12-18T04:34:12.630Z,99.19
2022-12-18T04:36:48.165Z,99.32
2022-12-18T04:39:16.310Z,99.30
2022-12-18T04:41:48.802Z,99.17
2022-12-18T04:44:16.266Z,99.54
2022-12-18T04:46:44.157Z,99.17
2022-12-18T04:49:11.822Z,99.39
2022-12-18T04:51:39.616Z,99.13
2022-12-18T04:54:07.097Z,99.84
2022-12-18T04:56:35.164Z,99.95
2022-12-18T04:59:02.801Z,99.74
2022-12-18T05:01:34.479Z,99.80
2022-12-18T05:04:03.781Z,99.41
2022-12-18T05:06:31.308Z,99.41
2022-12-18T05:08:58.825Z,99.40
2022-12-18T05:11:28.168Z,99.54
2022-12-18T05:13:55.578Z,99.95
2022-12-18T05:16:23.106Z,99.56
2022-12-18T05:18:50.560Z,99.45
2022-12-18T05:21:18.060Z,99.31
2022-12-18T05:23:45.479Z,99.96
2022-12-18T05:26:18.712Z,99.36
2022-12-18T05:28:46.957Z,99.55
2022-12-18T05:31:15.746Z,99.06
2022-12-18T05:33:43.890Z,98.99
2022-12-18T05:36:12.363Z,99.20
2022-12-18T05:38:40.274Z,99.17
2022-12-18T05:41:09.370Z,98.91
2022-12-18T05:43:40.183Z,99.01
2022-12-18T05:46:12.828Z,99.57
2022-12-18T05:48:40.428Z,99.52
2022-12-18T05:51:15.545Z,99.36
2022-12-18T05:53:44.197Z,99.00
2022-12-18T05:56:23.727Z,98.84
2022-12-18T05:58:55.468Z,98.48
2022-12-18T06:01:27.224Z,99.16
2022-12-18T06:03:56.312Z,98.53
2022-12-18T06:06:27.531Z,99.37
2022-12-18T06:08:56.302Z,99.05
2022-12-18T06:11:27.651Z,99.14
2022-12-18T06:13:59.083Z,99.46
2022-12-18T06:16:28.941Z,99.09
2022-12-18T06:19:01.972Z,99.21
2022-12-18T06:21:30.465Z,99.99
2022-12-18T06:23:59.298Z,99.66
2022-12-18T06:26:28.577Z,99.43
2022-12-18T06:28:56.369Z,100.00
2022-12-18T06:31:23.990Z,99.82
2022-12-18T06:33:51.576Z,99.41
2022-12-18T06:36:19.247Z,99.94
2022-12-18T06:38:46.669Z,99.61
2022-12-18T06:41:21.183Z,99.59
2022-12-18T06:43:48.742Z,99.62
2022-12-18T06:46:16.430Z,99.64
2022-12-18T06:48:43.866Z,99.82
2022-12-18T06:51:11.342Z,99.61
2022-12-18T06:53:39.135Z,99.55
2022-12-18T06:56:10.623Z,99.85
2022-12-18T06:58:41.983Z,99.64
2022-12-18T07:01:12.408Z,99.35
2022-12-18T07:03:42.502Z,99.59
2022-12-18T07:06:22.577Z,99.76
2022-12-18T07:08:50.951Z,99.91
2022-12-18T07:11:19.417Z,99.65
2022-12-18T07:13:47.492Z,100.00
2022-12-18T07:16:24.797Z,100.00
2022-12-18T07:18:56.194Z,100.00
2022-12-18T07:21:25.235Z,100.00
2022-12-18T07:23:52.781Z,100.00
2022-12-18T07:26:22.574Z,99.97
2022-12-18T07:28:50.869Z,99.96
2022-12-18T07:31:22.560Z,100.00
2022-12-18T07:33:51.974Z,100.00
2022-12-18T07:36:20.326Z,100.00
2022-12-18T07:38:52.527Z,100.00
2022-12-18T07:41:21.271Z,99.88
2022-12-18T07:43:49.404Z,100.00
2022-12-18T07:46:17.384Z,100.00
2022-12-18T07:48:49.504Z,99.97
2022-12-18T07:51:19.662Z,99.48
2022-12-18T07:53:48.784Z,99.66
2022-12-18T07:56:29.416Z,99.38
2022-12-18T07:58:58.599Z,99.76
2022-12-18T08:01:26.899Z,99.65
2022-12-18T08:03:54.624Z,100.00
2022-12-18T08:06:22.562Z,99.78
2022-12-18T08:08:56.772Z,99.63
2022-12-18T08:11:27.289Z,99.68
2022-12-18T08:13:55.344Z,99.56
2022-12-18T08:16:24.603Z,100.00
2022-12-18T08:18:54.352Z,99.16
2022-12-18T08:21:27.752Z,99.64
2022-12-18T08:23:58.509Z,99.24
2022-12-18T08:26:29.792Z,99.08
2022-12-18T08:28:59.511Z,98.88
2022-12-18T08:31:29.388Z,99.07
2022-12-18T08:33:57.936Z,99.18
2022-12-18T08:36:26.369Z,98.80
2022-12-18T08:38:54.953Z,99.20
2022-12-18T08:41:22.841Z,98.60
2022-12-18T08:44:09.356Z,98.29
2022-12-18T08:46:43.283Z,98.48
2022-12-18T08:49:12.821Z,98.34
2022-12-18T08:51:41.107Z,98.00
2022-12-18T08:54:12.759Z,98.29
2022-12-18T08:56:40.182Z,98.40
2022-12-18T08:59:07.605Z,97.93
2022-12-18T09:01:35.518Z,97.77
2022-12-18T09:04:04.611Z,97.71
2022-12-18T09:06:34.181Z,97.13
2022-12-18T09:09:02.112Z,97.49
2022-12-18T09:11:31.314Z,97.07
2022-12-18T09:14:01.525Z,96.85
2022-12-18T09:16:32.565Z,97.09
2022-12-18T09:19:01.966Z,96.87
2022-12-18T09:21:42.210Z,96.78
2022-12-18T09:24:15.248Z,96.09
2022-12-18T09:26:46.885Z,96.07
2022-12-18T09:29:18.988Z,96.47
2022-12-18T09:31:46.973Z,96.32
2022-12-18T09:34:14.500Z,96.25
2022-12-18T09:36:41.931Z,96.38
2022-12-18T09:39:11.184Z,96.12
2022-12-18T09:41:48.428Z,95.78
2022-12-18T09:44:37.744Z,95.17
2022-12-18T09:47:26.755Z,94.34
2022-12-18T09:50:02.914Z,94.61
2022-12-18T09:52:49.155Z,94.40
2022-12-18T09:55:40.702Z,94.13
2022-12-18T09:58:25.715Z,94.14
2022-12-18T10:00:54.517Z,94.06
2022-12-18T10:03:23.134Z,94.02
2022-12-18T10:06:19.512Z,94.27
2022-12-18T10:08:56.702Z,93.76
2022-12-18T10:11:50.084Z,93.77
2022-12-18T10:14:23.527Z,93.38
2022-12-18T10:17:12.174Z,93.28
2022-12-18T10:19:55.504Z,92.58
2022-12-18T10:22:44.005Z,92.02
2022-12-18T10:25:24.992Z,92.59
2022-12-18T10:28:13.127Z,92.84
2022-12-18T10:30:43.027Z,92.36
2022-12-18T10:33:20.194Z,92.13
2022-12-18T10:35:51.476Z,92.04
2022-12-18T10:38:18.892Z,92.50
2022-12-18T10:40:55.199Z,91.71
2022-12-18T10:43:26.378Z,90.92
2022-12-18T10:46:17.949Z,90.99
2022-12-18T10:48:53.873Z,91.23
2022-12-18T10:51:34.757Z,90.24
2022-12-18T10:54:15.768Z,89.19
2022-12-18T10:56:44.259Z,89.48
2022-12-18T10:59:16.104Z,89.31
2022-12-18T11:01:58.865Z,89.28
2022-12-18T11:04:31.060Z,89.99
2022-12-18T11:07:09.926Z,89.25
2022-12-18T11:09:40.760Z,89.60
2022-12-18T11:12:11.175Z,88.78
2022-12-18T11:14:54.689Z,88.18
2022-12-18T11:17:36.939Z,88.29
2022-12-18T11:20:25.066Z,88.30
2022-12-18T11:23:01.004Z,87.98
2022-12-18T11:25:33.540Z,88.26
2022-12-18T11:28:34.932Z,87.04
2022-12-18T11:31:28.746Z,87.54
2022-12-18T11:34:30.645Z,87.59
2022-12-18T11:37:01.967Z,88.34
2022-12-18T11:39:50.711Z,87.65
2022-12-18T11:42:28.916Z,87.44
2022-12-18T11:45:10.544Z,87.92
2022-12-18T11:47:51.453Z,87.79
2022-12-18T11:50:26.675Z,87.90
2022-12-18T11:52:58.268Z,88.01
2022-12-18T11:55:50.866Z,86.94
2022-12-18T11:58:52.558Z,86.63
2022-12-18T12:01:45.681Z,86.72
2022-12-18T12:04:40.521Z,86.54
2022-12-18T12:07:35.747Z,87.48
2022-12-18T12:10:40.488Z,87.30
2022-12-18T12:13:56.052Z,86.07
2022-12-18T12:16:35.791Z,85.47
2022-12-18T12:19:42.145Z,84.81
2022-12-18T12:22:24.490Z,85.18
2022-12-18T12:25:13.100Z,83.87
2022-12-18T12:28:16.705Z,84.91
2022-12-18T12:31:08.543Z,85.21
2022-12-18T12:33:57.714Z,85.41
2022-12-18T12:37:02.600Z,84.73
2022-12-18T12:39:40.615Z,84.59
2022-12-18T12:42:43.731Z,84.30
2022-12-18T12:45:25.119Z,84.00
2022-12-18T12:47:55.786Z,84.23
2022-12-18T12:50:24.609Z,84.49
2022-12-18T12:57:48.409Z,83.79
2022-12-18T13:01:58.514Z,84.45
2022-12-18T13:05:02.518Z,84.93
2022-12-18T13:08:40.166Z,84.25
2022-12-18T13:12:08.051Z,83.30
2022-12-18T13:14:40.767Z,83.65
2022-12-18T13:17:22.024Z,84.11
2022-12-18T13:20:05.609Z,83.74
2022-12-18T13:22:41.443Z,83.89
2022-12-18T13:26:01.455Z,84.12
2022-12-18T13:38:27.161Z,84.00
2022-12-18T13:41:08.669Z,84.44
2022-12-18T13:44:18.091Z,83.66
2022-12-18T13:47:58.922Z,83.38
2022-12-18T13:54:41.959Z,83.54
2022-12-18T13:57:32.182Z,83.99
2022-12-18T14:00:32.166Z,84.10
2022-12-18T14:07:48.336Z,84.72
2022-12-18T14:11:40.664Z,83.60
2022-12-18T14:19:03.294Z,84.72
2022-12-18T14:21:54.588Z,84.18
2022-12-18T14:24:36.500Z,83.77
2022-12-18T14:27:34.339Z,82.74
2022-12-18T14:38:28.002Z,83.33
2022-12-18T14:41:26.369Z,83.64
2022-12-18T14:44:07.217Z,83.92
2022-12-18T14:47:39.018Z,82.57
2022-12-18T14:49:49.814Z,83.18
2022-12-18T14:52:55.456Z,82.87
2022-12-18T14:55:52.937Z,83.19
2022-12-18T14:58:23.378Z,83.29
2022-12-18T15:00:51.313Z,82.80
2022-12-18T15:03:39.320Z,81.63
2022-12-18T15:07:21.486Z,81.56
2022-12-18T15:10:17.531Z,81.41
2022-12-18T15:13:20.509Z,81.28
2022-12-18T15:15:49.771Z,81.74
2022-12-18T15:18:23.975Z,81.28
2022-12-18T15:21:00.267Z,81.52
2022-12-18T15:24:01.850Z,81.66
2022-12-18T15:26:40.190Z,81.45
2022-12-18T15:29:47.156Z,81.39
2022-12-18T15:32:33.651Z,81.16
2022-12-18T15:35:25.142Z,81.55
2022-12-18T15:38:06.870Z,81.78
2022-12-18T15:40:38.914Z,81.33
2022-12-18T15:43:29.481Z,82.18
2022-12-18T15:46:02.921Z,82.20
2022-12-18T15:52:56.396Z,82.46
2022-12-18T15:55:48.850Z,82.86
2022-12-18T15:58:22.873Z,82.61
2022-12-18T16:01:18.477Z,82.67
2022-12-18T16:16:43.728Z,82.60
2022-12-18T16:19:11.228Z,82.00
2022-12-18T16:21:38.938Z,81.12
2022-12-18T16:24:10.195Z,81.81
2022-12-18T16:26:37.615Z,81.43
2022-12-18T16:29:05.058Z,81.91
2022-12-18T16:31:34.169Z,81.24
2022-12-18T16:34:24.967Z,81.63
2022-12-18T16:37:04.806Z,81.35
2022-12-18T16:39:37.367Z,81.53
2022-12-18T16:42:17.344Z,82.01
2022-12-18T16:44:46.254Z,81.70
2022-12-18T16:47:14.898Z,81.36
2022-12-18T16:49:45.847Z,81.86
2022-12-18T16:52:14.591Z,81.56
2022-12-18T16:54:42.136Z,81.71
2022-12-18T16:57:15.093Z,81.62
2022-12-18T16:59:42.609Z,81.41
2022-12-18T17:06:16.027Z,81.92
2022-12-18T17:10:04.397Z,81.85
2022-12-18T17:25:33.419Z,82.69
2022-12-18T17:40:40.653Z,82.90
2022-12-18T17:43:08.353Z,83.18
2022-12-18T17:58:37.615Z,83.27
2022-12-18T18:01:18.186Z,83.38
2022-12-18T18:03:47.950Z,83.16
2022-12-18T18:06:18.465Z,83.40
2022-12-18T18:08:45.961Z,83.27
2022-12-18T18:11:37.838Z,83.44
2022-12-18T18:14:11.001Z,83.11
2022-12-18T18:16:48.048Z,83.41
2022-12-18T18:19:22.729Z,83.24
2022-12-18T18:21:53.553Z,83.09
2022-12-18T18:24:23.669Z,83.42
2022-12-18T18:26:51.154Z,83.33
2022-12-18T18:29:26.599Z,83.40
2022-12-18T18:31:54.840Z,83.50
2022-12-18T18:34:25.741Z,83.73
2022-12-18T18:36:53.470Z,83.26
2022-12-18T18:39:21.190Z,83.43
2022-12-18T18:41:48.897Z,83.42
2022-12-18T18:44:18.557Z,83.20
2022-12-18T18:46:46.630Z,83.04
2022-12-18T18:49:15.186Z,83.31
2022-12-18T18:51:42.677Z,82.93
2022-12-18T18:54:10.934Z,83.31
2022-12-18T18:57:11.643Z,83.43
2022-12-18T18:59:30.370Z,83.56
2022-12-18T19:02:04.075Z,83.63
2022-12-18T19:04:33.949Z,83.36
2022-12-18T19:07:04.047Z,83.23
2022-12-18T19:09:55.552Z,83.20
2022-12-18T19:27:51.964Z,84.07
2022-12-18T19:30:30.604Z,84.04
2022-12-18T19:38:07.709Z,84.10
2022-12-18T19:46:07.477Z,84.31
2022-12-18T19:50:07.573Z,84.22
2022-12-18T19:52:36.023Z,84.48
2022-12-18T19:55:04.156Z,84.61
2022-12-18T19:57:32.184Z,84.66
2022-12-18T19:59:59.594Z,84.87
2022-12-18T20:02:27.227Z,85.44
2022-12-18T20:04:54.811Z,84.99
2022-12-18T20:07:22.416Z,85.16
2022-12-18T20:09:53.897Z,85.14
2022-12-18T20:12:27.622Z,85.67
2022-12-18T20:14:58.162Z,85.66
2022-12-18T20:17:25.936Z,85.86
2022-12-18T20:19:53.466Z,86.10
2022-12-18T20:22:21.795Z,86.38
2022-12-18T20:24:50.772Z,86.72
2022-12-18T20:27:19.659Z,87.37
2022-12-18T20:29:48.539Z,87.55
2022-12-18T20:32:20.662Z,88.10
2022-12-18T20:34:48.291Z,88.83
2022-12-18T20:37:16.089Z,88.17
2022-12-18T20:39:44.308Z,88.96
2022-12-18T20:42:11.791Z,89.21
2022-12-18T20:44:39.268Z,89.45
2022-12-18T20:47:12.656Z,89.70
2022-12-18T20:49:40.141Z,89.87
2022-12-18T20:52:12.888Z,90.17
2022-12-18T20:54:40.396Z,91.09
2022-12-18T20:57:07.968Z,90.80
2022-12-18T20:59:40.849Z,91.56
2022-12-18T21:02:13.611Z,91.42
2022-12-18T21:04:41.214Z,91.89
2022-12-18T21:07:08.780Z,92.05
2022-12-18T21:09:38.489Z,91.93
2022-12-18T21:12:35.074Z,92.82
2022-12-18T21:15:10.325Z,92.53
2022-12-18T21:17:44.170Z,92.47
2022-12-18T21:20:18.146Z,92.90
2022-12-18T21:22:47.074Z,93.25
2022-12-18T21:25:14.556Z,94.00
2022-12-18T21:27:41.937Z,93.81
2022-12-18T21:30:09.956Z,94.11
2022-12-18T21:32:37.380Z,94.47
2022-12-18T21:35:05.355Z,94.68
2022-12-18T21:37:32.875Z,94.65
2022-12-18T21:40:00.260Z,94.79
2022-12-18T21:42:46.373Z,95.09
2022-12-18T21:45:15.106Z,95.38
2022-12-18T21:47:45.548Z,95.93
2022-12-18T21:50:13.053Z,95.55
2022-12-18T21:52:40.707Z,96.06
2022-12-18T21:55:10.935Z,95.95
2022-12-18T21:57:39.339Z,95.74
2022-12-18T22:00:17.440Z,96.22
2022-12-18T22:02:48.859Z,96.25
2022-12-18T22:05:38.305Z,96.67
2022-12-18T22:08:08.051Z,96.96
2022-12-18T22:10:37.079Z,96.87
2022-12-18T22:13:06.476Z,97.54
2022-12-18T22:15:34.051Z,96.87
2022-12-18T22:18:01.636Z,97.56
2022-12-18T22:20:30.136Z,97.22
2022-12-18T22:22:58.618Z,97.13
2022-12-18T22:25:26.954Z,97.79
2022-12-18T22:28:16.178Z,97.62
2022-12-18T22:30:43.751Z,97.77
2022-12-18T22:33:11.429Z,98.23
2022-12-18T22:35:38.858Z,98.25
2022-12-18T22:38:06.553Z,98.36
2022-12-18T22:40:33.973Z,98.49
2022-12-18T22:43:01.536Z,98.47
2022-12-18T22:45:29.062Z,98.62
2022-12-18T22:47:59.155Z,99.38
2022-12-18T22:50:27.706Z,99.60
2022-12-18T22:52:55.115Z,99.03
2022-12-18T22:55:22.577Z,99.82
2022-12-18T22:57:50.879Z,99.69
2022-12-18T23:00:20.137Z,99.47
2022-12-18T23:03:00.434Z,99.54
2022-12-18T23:05:30.642Z,99.41
2022-12-18T23:07:59.269Z,99.98
2022-12-18T23:10:27.403Z,99.98
2022-12-18T23:12:54.906Z,99.86
2022-12-18T23:15:27.588Z,100.00
2022-12-18T23:17:58.664Z,100.00
2022-12-18T23:20:28.370Z,100.00
2022-12-18T23:22:55.764Z,100.00
2022-12-18T23:25:23.288Z,100.00
2022-12-18T23:27:51.007Z,100.00
2022-12-18T23:30:19.037Z,100.00
2022-12-18T23:32:46.468Z,100.00
2022-12-18T23:35:15.639Z,100.00
2022-12-18T23:38:00.513Z,100.00
2022-12-18T23:40:29.969Z,100.00
2022-12-18T23:43:00.105Z,100.00
2022-12-18T23:45:27.921Z,100.00
2022-12-18T23:47:55.372Z,100.00
2022-12-18T23:50:28.756Z,100.00
2022-12-18T23:52:57.107Z,100.00
2022-12-18T23:55:30.557Z,100.00
2022-12-18T23:57:57.962Z,100.00
